Walker, Minnesota
Current Conditions -  °F | °C
As of 10:15 PM on Sunday 21 Dec 2014 (Local Time) from KY49 Reporting Station
Haze Haze  
Wind Chill: 26°   Ceiling: 200
Heat Index: 32°   Visibility: 2mi
Dew Point: 32°   Wind: 7mph
Humidity: 99%   Direction: 150°SSE
Pressure: 29.62"   Gusts: NA
Location:  47.1°N, 94.59°W
Report Text: KY49 220415Z AUTO 15006KT 2SM BR OVC002 00/00 A2962 RMK AO2 T00010000
Loading
Personal Weather Stations






























Interactive Weather Map New forecast layout! Learn more

10-Day Weather Forecast

Advertisements
Track Severe Weather on mobile